createdAt,value
2018-04-27T00:00:27.436Z,941.96
2018-04-27T00:01:35.472Z,941.96
2018-04-27T00:02:43.650Z,941.98
2018-04-27T00:03:51.607Z,941.96
2018-04-27T00:04:59.716Z,941.96
2018-04-27T00:06:07.731Z,941.95
2018-04-27T00:07:15.774Z,941.95
2018-04-27T00:08:23.940Z,941.96
2018-04-27T00:09:31.894Z,941.96
2018-04-27T00:10:39.959Z,941.96
2018-04-27T00:11:48.010Z,941.90
2018-04-27T00:12:56.073Z,941.88
2018-04-27T00:14:04.359Z,941.87
2018-04-27T00:15:12.193Z,941.91
2018-04-27T00:16:20.248Z,941.91
2018-04-27T00:17:28.316Z,941.91
2018-04-27T00:18:36.366Z,941.91
2018-04-27T00:19:44.621Z,941.91
2018-04-27T00:20:52.474Z,941.91
2018-04-27T00:22:00.543Z,941.92
2018-04-27T00:23:08.609Z,941.94
2018-04-27T00:24:16.653Z,941.89
2018-04-27T00:25:24.819Z,941.91
2018-04-27T00:26:32.841Z,941.86
2018-04-27T00:27:40.837Z,941.87
2018-04-27T00:28:48.885Z,941.84
2018-04-27T00:29:57.035Z,941.84
2018-04-27T00:31:05.209Z,941.85
2018-04-27T00:32:13.373Z,941.86
2018-04-27T00:33:21.127Z,941.84
2018-04-27T00:34:29.297Z,941.84
2018-04-27T00:35:37.248Z,941.81
2018-04-27T00:36:45.376Z,941.78
2018-04-27T00:37:54.337Z,941.82
2018-04-27T00:39:01.411Z,941.76
2018-04-27T00:40:09.713Z,941.79
2018-04-27T00:41:17.528Z,941.79
2018-04-27T00:42:25.673Z,941.75
2018-04-27T00:43:33.652Z,941.76
2018-04-27T00:44:41.714Z,941.73
2018-04-27T00:45:49.854Z,941.75
2018-04-27T00:46:57.829Z,941.71
2018-04-27T00:48:06.108Z,941.68
2018-04-27T00:49:13.949Z,941.69
2018-04-27T00:50:22.009Z,941.64
2018-04-27T00:51:30.044Z,941.64
2018-04-27T00:52:38.117Z,941.64
2018-04-27T00:53:46.278Z,941.61
2018-04-27T00:54:54.267Z,941.62
2018-04-27T00:56:02.290Z,941.62
2018-04-27T00:57:10.355Z,941.64
2018-04-27T00:58:18.402Z,941.62
2018-04-27T00:59:26.553Z,941.61
2018-04-27T01:00:34.525Z,941.56
2018-04-27T01:01:42.684Z,941.57
2018-04-27T01:02:50.644Z,941.57
2018-04-27T01:03:58.701Z,941.56
2018-04-27T01:05:06.977Z,941.56
2018-04-27T01:06:14.797Z,941.55
2018-04-27T01:07:22.889Z,941.51
2018-04-27T01:08:30.933Z,941.47
2018-04-27T01:09:38.999Z,941.48
2018-04-27T01:10:47.273Z,941.43
2018-04-27T01:11:55.089Z,941.42
2018-04-27T01:13:03.177Z,941.35
2018-04-27T01:14:11.241Z,941.37
2018-04-27T01:15:19.284Z,941.36
2018-04-27T01:16:27.453Z,941.34
2018-04-27T01:17:35.493Z,941.31
2018-04-27T01:18:43.495Z,941.28
2018-04-27T01:19:51.525Z,941.23
2018-04-27T01:20:59.589Z,941.25
2018-04-27T01:22:07.739Z,941.20
2018-04-27T01:23:15.701Z,941.19
2018-04-27T01:24:23.784Z,941.17
2018-04-27T01:25:31.817Z,941.13
2018-04-27T01:26:40.052Z,941.16
2018-04-27T01:27:48.166Z,941.20
2018-04-27T01:28:56.000Z,941.14
2018-04-27T01:30:04.053Z,941.14
2018-04-27T01:31:12.099Z,941.14
2018-04-27T01:32:20.163Z,941.16
2018-04-27T01:33:28.466Z,941.07
2018-04-27T01:34:36.282Z,941.08
2018-04-27T01:35:44.331Z,941.07
2018-04-27T01:36:52.402Z,941.02
2018-04-27T01:38:00.459Z,941.10
2018-04-27T01:39:08.627Z,941.06
2018-04-27T01:40:16.589Z,941.09
2018-04-27T01:41:24.628Z,941.00
2018-04-27T01:42:32.692Z,941.03
2018-04-27T01:43:40.753Z,941.09
2018-04-27T01:44:48.908Z,941.08
2018-04-27T01:45:56.864Z,941.06
2018-04-27T01:47:04.909Z,941.04
2018-04-27T01:48:12.986Z,941.08
2018-04-27T01:49:21.311Z,941.07
2018-04-27T01:50:29.213Z,941.10
2018-04-27T01:51:37.166Z,941.05
2018-04-27T01:52:45.205Z,940.95
2018-04-27T01:53:53.272Z,940.93
2018-04-27T01:55:01.331Z,940.87
2018-04-27T01:56:09.499Z,940.83
2018-04-27T01:57:17.453Z,940.81
2018-04-27T01:58:25.514Z,940.75
2018-04-27T01:59:33.575Z,940.80
2018-04-27T02:00:41.636Z,940.78
2018-04-27T02:01:49.909Z,940.75
2018-04-27T02:02:57.758Z,940.72
2018-04-27T02:04:05.824Z,940.74
2018-04-27T02:05:13.961Z,940.72
2018-04-27T02:06:21.920Z,940.75
2018-04-27T02:07:30.076Z,940.75
2018-04-27T02:08:38.044Z,940.73
2018-04-27T02:09:46.101Z,940.77
2018-04-27T02:10:54.166Z,940.72
2018-04-27T02:12:02.215Z,940.67
2018-04-27T02:13:10.380Z,940.68
2018-04-27T02:14:18.328Z,940.63
2018-04-27T02:15:26.397Z,940.58
2018-04-27T02:16:34.457Z,940.54
2018-04-27T02:17:42.503Z,940.52
2018-04-27T02:18:50.788Z,940.48
2018-04-27T02:19:58.638Z,940.49
2018-04-27T02:21:06.799Z,940.41
2018-04-27T02:22:14.736Z,940.45
2018-04-27T02:23:22.803Z,940.41
2018-04-27T02:24:31.085Z,940.41
2018-04-27T02:25:38.924Z,940.41
2018-04-27T02:26:47.017Z,940.37
2018-04-27T02:27:55.019Z,940.34
2018-04-27T02:29:03.084Z,940.31
2018-04-27T02:30:11.259Z,940.31
2018-04-27T02:31:19.220Z,940.29
2018-04-27T02:32:27.286Z,940.27
2018-04-27T02:33:35.315Z,940.28
2018-04-27T02:34:43.393Z,940.24
2018-04-27T02:35:51.673Z,940.22
2018-04-27T02:36:59.594Z,940.19
2018-04-27T02:38:07.578Z,940.18
2018-04-27T02:39:15.620Z,940.16
2018-04-27T02:40:23.680Z,940.16
2018-04-27T02:41:31.823Z,940.06
2018-04-27T02:42:39.797Z,940.05
2018-04-27T02:43:47.868Z,940.03
2018-04-27T02:44:55.921Z,940.07
2018-04-27T02:46:03.972Z,940.07
2018-04-27T02:47:12.125Z,940.09
2018-04-27T02:48:20.100Z,940.05
2018-04-27T02:49:28.147Z,940.11
2018-04-27T02:50:36.202Z,940.10
2018-04-27T02:51:44.256Z,940.03
2018-04-27T02:52:52.552Z,940.02
2018-04-27T02:54:00.403Z,940.03
2018-04-27T02:55:08.440Z,940.02
2018-04-27T02:56:16.504Z,940.07
2018-04-27T02:57:24.557Z,940.04
2018-04-27T02:58:32.834Z,940.01
2018-04-27T02:59:40.669Z,939.99
2018-04-27T03:00:48.782Z,939.92
2018-04-27T03:01:56.800Z,939.92
2018-04-27T03:03:04.837Z,939.94
2018-04-27T03:04:13.008Z,939.92
2018-04-27T03:05:22.012Z,939.88
2018-04-27T03:06:29.024Z,939.85
2018-04-27T03:07:37.088Z,939.88
2018-04-27T03:08:45.220Z,939.84
2018-04-27T03:09:53.296Z,939.83
2018-04-27T03:11:01.243Z,939.82
2018-04-27T03:12:09.324Z,939.77
2018-04-27T03:13:17.379Z,939.78
2018-04-27T03:14:25.501Z,939.75
2018-04-27T03:15:33.721Z,939.74
2018-04-27T03:16:41.553Z,939.69
2018-04-27T03:17:49.600Z,939.70
2018-04-27T03:18:57.667Z,939.68
2018-04-27T03:20:05.742Z,939.65
2018-04-27T03:21:13.872Z,939.66
2018-04-27T03:22:21.832Z,939.67
2018-04-27T03:23:29.899Z,939.60
2018-04-27T03:24:38.057Z,939.58
2018-04-27T03:25:45.998Z,939.56
2018-04-27T03:26:54.167Z,939.56
2018-04-27T03:28:02.134Z,939.54
2018-04-27T03:29:10.191Z,939.55
2018-04-27T03:30:18.238Z,939.59
2018-04-27T03:31:26.322Z,939.51
2018-04-27T03:32:34.567Z,939.49
2018-04-27T03:33:42.413Z,939.50
2018-04-27T03:34:50.481Z,939.47
2018-04-27T03:35:58.528Z,939.52
2018-04-27T03:37:06.742Z,939.47
2018-04-27T03:38:14.739Z,939.41
2018-04-27T03:39:22.713Z,939.39
2018-04-27T03:40:30.876Z,939.35
2018-04-27T03:41:38.834Z,939.37
2018-04-27T03:42:46.876Z,939.35
2018-04-27T03:43:55.027Z,939.33
2018-04-27T03:45:03.002Z,939.30
2018-04-27T03:46:11.056Z,939.29
2018-04-27T03:47:19.143Z,939.25
2018-04-27T03:48:27.180Z,939.29
2018-04-27T03:49:35.445Z,939.24
2018-04-27T03:50:43.293Z,939.22
2018-04-27T03:51:51.413Z,939.22
2018-04-27T03:52:59.405Z,939.22
2018-04-27T03:54:07.618Z,939.20
2018-04-27T03:55:15.606Z,939.15
2018-04-27T03:56:23.800Z,939.22
2018-04-27T03:57:31.628Z,939.18
2018-04-27T03:58:39.707Z,939.20
2018-04-27T03:59:47.754Z,939.19
2018-04-27T04:00:55.919Z,939.17
2018-04-27T04:02:03.871Z,939.17
2018-04-27T04:03:11.938Z,939.13
2018-04-27T04:04:19.986Z,939.13
2018-04-27T04:05:28.056Z,939.17
2018-04-27T04:06:36.332Z,939.14
2018-04-27T04:07:44.193Z,939.14
2018-04-27T04:08:52.226Z,939.08
2018-04-27T04:10:00.274Z,939.11
2018-04-27T04:11:08.346Z,939.06
2018-04-27T04:12:16.486Z,939.04
2018-04-27T04:13:24.448Z,939.10
2018-04-27T04:14:32.535Z,939.07
2018-04-27T04:15:40.565Z,939.04
2018-04-27T04:16:48.635Z,939.03
2018-04-27T04:17:56.915Z,939.01
2018-04-27T04:19:04.714Z,939.01
2018-04-27T04:20:12.794Z,939.03
2018-04-27T04:21:20.862Z,939.02
2018-04-27T04:22:28.917Z,939.02
2018-04-27T04:23:37.077Z,938.98
2018-04-27T04:24:45.010Z,938.98
2018-04-27T04:25:53.098Z,938.97
2018-04-27T04:27:01.717Z,938.95
2018-04-27T04:28:09.301Z,938.95
2018-04-27T04:29:17.349Z,938.99
2018-04-27T04:30:25.298Z,938.94
2018-04-27T04:31:33.433Z,939.00
2018-04-27T04:32:41.441Z,938.94
2018-04-27T04:33:49.534Z,938.88
2018-04-27T04:34:57.770Z,938.89
2018-04-27T04:36:05.611Z,938.90
2018-04-27T04:37:13.663Z,938.89
2018-04-27T04:38:21.747Z,938.93
2018-04-27T04:39:29.779Z,938.87
2018-04-27T04:40:38.057Z,938.89
2018-04-27T04:41:45.888Z,938.92
2018-04-27T04:42:54.077Z,938.89
2018-04-27T04:44:02.135Z,938.90
2018-04-27T04:45:10.150Z,938.88
2018-04-27T04:46:18.242Z,938.92
2018-04-27T04:47:26.181Z,938.92
2018-04-27T04:48:34.243Z,938.88
2018-04-27T04:49:42.294Z,938.91
2018-04-27T04:50:50.358Z,938.90
2018-04-27T04:51:58.669Z,938.88
2018-04-27T04:53:06.929Z,938.87
2018-04-27T04:54:14.530Z,938.86
2018-04-27T04:55:22.600Z,938.87
2018-04-27T04:56:30.667Z,938.87
2018-04-27T04:57:38.941Z,938.89
2018-04-27T04:58:46.780Z,938.90
2018-04-27T04:59:55.044Z,938.93
2018-04-27T05:01:03.510Z,938.91
2018-04-27T05:02:11.515Z,938.86
2018-04-27T05:03:21.163Z,938.83
2018-04-27T05:04:27.465Z,938.88
2018-04-27T05:05:35.345Z,938.86
2018-04-27T05:06:43.792Z,938.84
2018-04-27T05:07:51.836Z,938.84
2018-04-27T05:09:00.356Z,938.85
2018-04-27T05:10:07.951Z,938.77
2018-04-27T05:11:15.819Z,938.73
2018-04-27T05:13:31.595Z,938.77
2018-04-27T05:14:39.681Z,938.77
2018-04-27T05:15:47.875Z,938.75
2018-04-27T05:16:55.716Z,938.78
2018-04-27T05:18:03.760Z,938.76
2018-04-27T05:19:11.817Z,938.70
2018-04-27T05:20:19.967Z,938.68
2018-04-27T05:21:27.931Z,938.70
2018-04-27T05:22:35.979Z,938.77
2018-04-27T05:23:44.056Z,938.73
2018-04-27T05:24:52.113Z,938.66
2018-04-27T05:26:00.248Z,938.72
2018-04-27T05:27:08.228Z,938.73
2018-04-27T05:28:16.282Z,938.69
2018-04-27T05:29:24.349Z,938.71
2018-04-27T05:30:32.418Z,938.66
2018-04-27T05:31:40.816Z,938.70
2018-04-27T05:32:48.517Z,938.78
2018-04-27T05:33:56.587Z,938.74
2018-04-27T05:35:04.621Z,938.67
2018-04-27T05:36:12.690Z,938.70
2018-04-27T05:37:20.843Z,938.72
2018-04-27T05:38:28.816Z,938.68
2018-04-27T05:39:36.873Z,938.67
2018-04-27T05:40:44.912Z,938.67
2018-04-27T05:41:52.987Z,938.67
2018-04-27T05:43:01.133Z,938.63
2018-04-27T05:44:09.095Z,938.65
2018-04-27T05:45:17.157Z,938.73
2018-04-27T05:46:25.193Z,938.66
2018-04-27T05:47:33.502Z,938.65
2018-04-27T05:48:41.430Z,938.70
2018-04-27T05:49:49.380Z,938.61
2018-04-27T05:50:57.447Z,938.67
2018-04-27T05:52:05.494Z,938.63
2018-04-27T05:53:13.565Z,938.61
2018-04-27T05:54:21.728Z,938.66
2018-04-27T05:55:29.688Z,938.61
2018-04-27T05:56:37.759Z,938.56
2018-04-27T05:57:45.800Z,938.61
2018-04-27T05:58:53.894Z,938.58
2018-04-27T06:00:02.031Z,938.58
2018-04-27T06:01:09.974Z,938.49
2018-04-27T06:02:18.039Z,938.62
2018-04-27T06:03:26.202Z,938.68
2018-04-27T06:04:34.181Z,938.57
2018-04-27T06:05:42.446Z,938.57
2018-04-27T06:06:50.283Z,938.48
2018-04-27T06:07:58.323Z,938.51
2018-04-27T06:09:06.397Z,938.54
2018-04-27T06:10:14.449Z,938.73
2018-04-27T06:11:22.620Z,938.60
2018-04-27T06:12:30.582Z,938.56
2018-04-27T06:13:38.637Z,938.52
2018-04-27T06:14:46.705Z,938.68
2018-04-27T06:15:54.746Z,938.84
2018-04-27T06:17:02.911Z,938.81
2018-04-27T06:18:10.883Z,938.61
2018-04-27T06:19:22.418Z,938.56
2018-04-27T06:20:26.984Z,938.50
2018-04-27T06:21:35.037Z,938.43
2018-04-27T06:22:43.206Z,938.44
2018-04-27T06:23:51.174Z,938.40
2018-04-27T06:24:59.253Z,938.35
2018-04-27T06:26:07.304Z,938.38
2018-04-27T06:27:15.370Z,938.30
2018-04-27T06:28:23.512Z,938.26
2018-04-27T06:29:31.475Z,938.28
2018-04-27T06:30:39.556Z,938.29
2018-04-27T06:31:47.606Z,938.33
2018-04-27T06:32:55.665Z,938.33
2018-04-27T06:34:03.828Z,938.41
2018-04-27T06:35:12.010Z,938.44
2018-04-27T06:36:19.851Z,938.31
2018-04-27T06:37:27.908Z,938.24
2018-04-27T06:38:35.957Z,938.27
2018-04-27T06:39:44.120Z,938.29
2018-04-27T06:40:52.079Z,938.22
2018-04-27T06:42:00.137Z,938.22
2018-04-27T06:43:08.240Z,938.25
2018-04-27T06:44:16.405Z,938.28
2018-04-27T06:45:24.425Z,938.25
2018-04-27T06:46:32.387Z,938.15
2018-04-27T06:47:40.462Z,938.12
2018-04-27T06:48:48.514Z,938.14
2018-04-27T06:49:56.573Z,938.17
2018-04-27T06:51:04.843Z,938.17
2018-04-27T06:52:12.688Z,938.16
2018-04-27T06:53:20.768Z,938.10
2018-04-27T06:54:28.818Z,938.12
2018-04-27T06:55:36.898Z,938.10
2018-04-27T06:56:45.150Z,938.13
2018-04-27T06:57:53.008Z,938.12
2018-04-27T06:59:01.068Z,938.13
2018-04-27T07:00:09.120Z,938.12
2018-04-27T07:01:17.195Z,938.08
2018-04-27T07:02:25.325Z,938.10
2018-04-27T07:03:33.300Z,938.05
2018-04-27T07:04:41.367Z,938.06
2018-04-27T07:05:49.434Z,938.00
2018-04-27T07:06:57.596Z,938.05
2018-04-27T07:08:05.776Z,937.97
2018-04-27T07:09:13.614Z,938.00
2018-04-27T07:10:21.688Z,937.93
2018-04-27T07:11:29.827Z,937.87
2018-04-27T07:12:37.827Z,937.91
2018-04-27T07:13:46.069Z,937.84
2018-04-27T07:14:53.928Z,937.88
2018-04-27T07:16:01.992Z,937.95
2018-04-27T07:17:10.082Z,938.01
2018-04-27T07:18:18.108Z,938.08
2018-04-27T07:19:26.280Z,938.33
2018-04-27T07:20:34.238Z,938.55
2018-04-27T07:21:42.298Z,938.75
2018-04-27T07:22:50.582Z,938.95
2018-04-27T07:23:58.430Z,938.82
2018-04-27T07:25:06.584Z,938.85
2018-04-27T07:26:14.630Z,938.99
2018-04-27T07:27:22.625Z,939.42
2018-04-27T07:28:30.670Z,939.25
2018-04-27T07:29:38.741Z,938.50
2018-04-27T07:30:47.040Z,938.06
2018-04-27T07:31:54.844Z,938.03
2018-04-27T07:33:02.921Z,938.05
2018-04-27T07:34:11.048Z,937.95
2018-04-27T07:35:19.076Z,937.89
2018-04-27T07:36:27.232Z,938.82
2018-04-27T07:37:35.192Z,939.88
2018-04-27T07:38:43.349Z,939.80
2018-04-27T07:39:51.326Z,939.06
2018-04-27T07:40:59.384Z,938.39
2018-04-27T07:42:07.551Z,937.96
2018-04-27T07:43:15.526Z,938.48
2018-04-27T07:44:23.589Z,939.50
2018-04-27T07:45:31.658Z,938.95
2018-04-27T07:46:39.714Z,939.42
2018-04-27T07:47:48.003Z,940.03
2018-04-27T07:48:55.837Z,940.57
2018-04-27T07:50:03.912Z,940.14
2018-04-27T07:51:11.988Z,940.00
2018-04-27T07:52:20.061Z,940.66
2018-04-27T07:53:28.339Z,941.79
2018-04-27T07:54:36.268Z,942.92
2018-04-27T07:55:44.250Z,942.54
2018-04-27T07:56:52.324Z,942.68
2018-04-27T07:58:00.401Z,943.30
2018-04-27T07:59:08.551Z,943.66
2018-04-27T08:00:16.512Z,944.08
2018-04-27T08:01:24.575Z,944.61
2018-04-27T08:02:32.648Z,944.81
2018-04-27T08:03:40.728Z,945.40
2018-04-27T08:04:49.046Z,946.54
2018-04-27T08:05:56.853Z,946.02
2018-04-27T08:07:04.922Z,945.07
2018-04-27T08:08:13.010Z,944.43
2018-04-27T08:09:21.085Z,944.24
2018-04-27T08:10:29.378Z,944.82
2018-04-27T08:11:37.230Z,945.56
2018-04-27T08:12:45.298Z,945.95
2018-04-27T08:13:53.384Z,946.93
2018-04-27T08:15:01.451Z,948.73
2018-04-27T08:16:09.740Z,949.70
2018-04-27T08:17:17.589Z,951.53
2018-04-27T08:18:25.654Z,950.18
2018-04-27T08:19:33.735Z,947.45
2018-04-27T08:20:41.812Z,949.24
2018-04-27T08:21:49.979Z,950.67
2018-04-27T08:22:57.959Z,949.69
2018-04-27T08:24:06.042Z,949.82
2018-04-27T08:25:14.117Z,950.72
2018-04-27T08:26:22.298Z,951.25
2018-04-27T08:27:30.389Z,952.44
2018-04-27T08:28:38.356Z,953.30
2018-04-27T08:29:46.410Z,953.25
2018-04-27T08:30:54.515Z,952.75
2018-04-27T08:32:02.559Z,952.59
2018-04-27T08:33:10.877Z,951.83
2018-04-27T08:34:18.730Z,951.97
2018-04-27T08:35:26.808Z,952.38
2018-04-27T08:36:34.841Z,951.46
2018-04-27T08:37:42.948Z,950.05
2018-04-27T08:38:51.256Z,950.68
2018-04-27T08:39:59.119Z,952.37
2018-04-27T08:41:07.195Z,952.51
2018-04-27T08:42:15.341Z,950.76
2018-04-27T08:43:23.334Z,951.00
2018-04-27T08:44:31.516Z,949.61
2018-04-27T08:45:39.488Z,948.18
2018-04-27T08:46:47.570Z,948.26
2018-04-27T08:47:55.645Z,949.67
2018-04-27T08:49:03.720Z,950.24
2018-04-27T08:50:11.894Z,949.75
2018-04-27T08:51:19.863Z,949.64
2018-04-27T08:52:27.946Z,949.42
2018-04-27T08:53:36.062Z,949.28
2018-04-27T08:54:44.104Z,948.76
2018-04-27T08:55:52.388Z,947.29
2018-04-27T08:57:00.236Z,946.28
2018-04-27T08:58:08.421Z,946.31
2018-04-27T08:59:16.396Z,940.93
2018-04-27T09:00:24.471Z,937.38
2018-04-27T09:01:32.784Z,937.36
2018-04-27T09:02:40.647Z,937.39
2018-04-27T09:03:48.706Z,937.35
2018-04-27T09:04:56.776Z,937.32
2018-04-27T09:06:04.815Z,937.24
2018-04-27T09:07:13.021Z,937.22
2018-04-27T09:08:20.983Z,937.19
2018-04-27T09:09:29.078Z,937.19
2018-04-27T09:10:37.137Z,937.17
2018-04-27T09:11:45.201Z,937.15
2018-04-27T09:12:53.501Z,937.16
2018-04-27T09:14:01.431Z,937.14
2018-04-27T09:15:09.433Z,937.10
2018-04-27T09:16:17.544Z,937.08
2018-04-27T09:17:25.558Z,937.06
2018-04-27T09:18:33.738Z,937.06
2018-04-27T09:19:41.700Z,937.03
2018-04-27T09:20:49.828Z,936.99
2018-04-27T09:21:57.868Z,937.04
2018-04-27T09:23:05.923Z,937.05
2018-04-27T09:24:14.096Z,937.00
2018-04-27T09:25:22.048Z,936.96
2018-04-27T09:26:30.134Z,936.97
2018-04-27T09:27:38.176Z,936.98
2018-04-27T09:28:46.253Z,936.94
2018-04-27T09:29:54.531Z,936.94
2018-04-27T09:31:02.396Z,936.88
2018-04-27T09:32:10.458Z,936.79
2018-04-27T09:33:18.520Z,936.88
2018-04-27T09:34:26.594Z,936.81
2018-04-27T09:35:34.867Z,936.78
2018-04-27T09:36:42.735Z,936.75
2018-04-27T09:37:50.797Z,936.66
2018-04-27T09:38:58.876Z,936.68
2018-04-27T09:40:06.947Z,936.61
2018-04-27T09:41:15.066Z,936.61
2018-04-27T09:42:23.060Z,936.61
2018-04-27T09:43:31.133Z,936.57
2018-04-27T09:44:39.203Z,936.58
2018-04-27T09:45:47.357Z,936.57
2018-04-27T09:46:55.564Z,936.58
2018-04-27T09:48:03.401Z,936.60
2018-04-27T09:49:11.465Z,936.55
2018-04-27T09:50:19.529Z,936.50
2018-04-27T09:51:27.604Z,936.50
2018-04-27T09:52:35.754Z,936.51
2018-04-27T09:53:43.742Z,936.52
2018-04-27T09:54:51.815Z,936.54
2018-04-27T09:55:59.868Z,936.50
2018-04-27T09:57:07.935Z,936.53
2018-04-27T09:58:16.090Z,936.53
2018-04-27T09:59:24.058Z,936.56
2018-04-27T10:00:32.126Z,936.53
2018-04-27T10:01:40.303Z,936.53
2018-04-27T10:02:48.276Z,936.49
2018-04-27T10:03:56.571Z,936.48
2018-04-27T10:05:04.396Z,936.48
2018-04-27T10:06:12.460Z,936.43
2018-04-27T10:07:20.536Z,936.43
2018-04-27T10:08:28.604Z,936.41
2018-04-27T10:09:36.827Z,936.42
2018-04-27T10:10:44.736Z,936.39
2018-04-27T10:11:52.794Z,936.33
2018-04-27T10:13:00.861Z,936.33
2018-04-27T10:14:08.945Z,936.38
2018-04-27T10:15:17.233Z,936.38
2018-04-27T10:16:25.037Z,936.39
2018-04-27T10:17:33.239Z,936.34
2018-04-27T10:18:41.202Z,936.34
2018-04-27T10:19:49.269Z,936.25
2018-04-27T10:20:57.422Z,936.26
2018-04-27T10:22:05.397Z,936.25
2018-04-27T10:23:13.457Z,936.29
2018-04-27T10:24:21.532Z,936.22
2018-04-27T10:25:29.602Z,936.20
2018-04-27T10:26:37.758Z,936.22
2018-04-27T10:27:45.739Z,936.22
2018-04-27T10:28:53.807Z,936.20
2018-04-27T10:30:01.858Z,936.23
2018-04-27T10:31:09.938Z,936.18
2018-04-27T10:32:18.223Z,936.19
2018-04-27T10:33:26.159Z,936.16
2018-04-27T10:34:34.120Z,936.22
2018-04-27T10:35:42.197Z,936.21
2018-04-27T10:36:50.274Z,936.11
2018-04-27T10:37:58.423Z,936.16
2018-04-27T10:39:06.435Z,936.18
2018-04-27T10:40:14.451Z,936.14
2018-04-27T10:41:22.528Z,936.13
2018-04-27T10:42:30.598Z,936.07
2018-04-27T10:43:38.773Z,936.07
2018-04-27T10:44:46.733Z,936.08
2018-04-27T10:45:54.773Z,936.02
2018-04-27T10:47:02.867Z,936.02
2018-04-27T10:48:10.937Z,936.01
2018-04-27T10:49:19.239Z,935.98
2018-04-27T10:50:27.073Z,935.99
2018-04-27T10:51:35.115Z,936.04
2018-04-27T10:52:43.200Z,935.90
2018-04-27T10:53:51.274Z,935.89
2018-04-27T10:54:59.429Z,935.89
2018-04-27T10:56:07.446Z,935.90
2018-04-27T10:57:15.453Z,935.89
2018-04-27T10:58:23.535Z,935.86
2018-04-27T10:59:31.602Z,935.96
2018-04-27T11:00:39.762Z,935.90
2018-04-27T11:01:47.745Z,935.86
2018-04-27T11:02:55.799Z,935.91
2018-04-27T11:04:03.861Z,935.90
2018-04-27T11:05:12.072Z,935.90
2018-04-27T11:06:20.228Z,935.93
2018-04-27T11:07:28.071Z,935.91
2018-04-27T11:08:36.146Z,935.86
2018-04-27T11:09:44.302Z,935.85
2018-04-27T11:10:52.277Z,935.88
2018-04-27T11:12:00.450Z,935.82
2018-04-27T11:13:08.420Z,935.81
2018-04-27T11:14:16.482Z,935.79
2018-04-27T11:15:24.548Z,935.80
2018-04-27T11:16:32.609Z,935.76
2018-04-27T11:17:40.767Z,935.75
2018-04-27T11:18:48.748Z,935.76
2018-04-27T11:19:56.817Z,935.74
2018-04-27T11:21:04.955Z,935.69
2018-04-27T11:22:13.078Z,935.69
2018-04-27T11:23:21.247Z,935.63
2018-04-27T11:24:29.090Z,935.65
2018-04-27T11:25:37.145Z,935.62
2018-04-27T11:26:45.216Z,935.63
2018-04-27T11:27:53.286Z,935.60
2018-04-27T11:29:01.455Z,935.62
2018-04-27T11:30:09.446Z,935.55
2018-04-27T11:31:17.490Z,935.60
2018-04-27T11:32:25.549Z,935.54
2018-04-27T11:33:33.708Z,935.57
2018-04-27T11:34:41.796Z,935.55
2018-04-27T11:35:49.767Z,935.56
2018-04-27T11:36:57.933Z,935.52
2018-04-27T11:38:05.913Z,935.51
2018-04-27T11:39:13.960Z,935.56
2018-04-27T11:40:22.281Z,935.50
2018-04-27T11:41:30.099Z,935.48
2018-04-27T11:42:38.166Z,935.49
2018-04-27T11:43:46.246Z,935.51
2018-04-27T11:44:54.307Z,935.53
2018-04-27T11:46:02.467Z,935.50
2018-04-27T11:47:10.452Z,935.48
2018-04-27T11:48:18.500Z,935.52
2018-04-27T11:49:26.572Z,935.51
2018-04-27T11:50:34.625Z,935.48
2018-04-27T11:51:42.817Z,935.45
2018-04-27T11:52:50.999Z,935.43
2018-04-27T11:53:58.849Z,935.44
2018-04-27T11:55:06.917Z,935.43
2018-04-27T11:56:14.999Z,935.39
2018-04-27T11:57:23.136Z,935.44
2018-04-27T11:58:31.128Z,935.39
2018-04-27T11:59:39.189Z,935.42
2018-04-27T12:00:47.265Z,935.37
2018-04-27T12:01:55.292Z,935.34
2018-04-27T12:03:03.485Z,935.36
2018-04-27T12:04:11.465Z,935.36
2018-04-27T12:05:19.534Z,935.33
2018-04-27T12:06:27.599Z,935.37
2018-04-27T12:07:35.662Z,935.41
2018-04-27T12:08:43.964Z,935.44
2018-04-27T12:09:51.785Z,935.42
2018-04-27T12:10:59.851Z,935.40
2018-04-27T12:12:07.919Z,935.37
2018-04-27T12:13:16.001Z,935.36
2018-04-27T12:14:24.166Z,935.39
2018-04-27T12:15:32.124Z,935.34
2018-04-27T12:16:40.186Z,935.36
2018-04-27T12:17:48.264Z,935.35
2018-04-27T12:18:56.339Z,935.33
2018-04-27T12:20:04.511Z,935.34
2018-04-27T12:21:12.481Z,935.34
2018-04-27T12:22:20.567Z,935.31
2018-04-27T12:23:28.610Z,935.31
2018-04-27T12:24:36.897Z,935.27
2018-04-27T12:25:44.967Z,935.29
2018-04-27T12:26:52.826Z,935.30
2018-04-27T12:28:00.879Z,935.29
2018-04-27T12:29:08.945Z,935.29
2018-04-27T12:30:17.008Z,935.29
2018-04-27T12:31:25.297Z,935.32
2018-04-27T12:32:33.157Z,935.31
2018-04-27T12:33:41.220Z,935.34
2018-04-27T12:34:49.277Z,935.32
2018-04-27T12:35:57.353Z,935.33
2018-04-27T12:37:05.509Z,935.35
2018-04-27T12:38:13.507Z,935.34
2018-04-27T12:39:21.554Z,935.33
2018-04-27T12:40:29.728Z,935.32
2018-04-27T12:41:37.698Z,935.31
2018-04-27T12:42:45.982Z,935.30
2018-04-27T12:43:53.834Z,935.29
2018-04-27T12:45:02.001Z,935.25
2018-04-27T12:46:09.957Z,935.30
2018-04-27T12:47:18.020Z,935.30
2018-04-27T12:48:26.205Z,935.24
2018-04-27T12:49:34.201Z,935.27
2018-04-27T12:50:42.240Z,935.29
2018-04-27T12:51:50.312Z,935.25
2018-04-27T12:52:58.369Z,935.22
2018-04-27T12:54:06.538Z,935.17
2018-04-27T12:55:14.504Z,935.18
2018-04-27T12:56:22.671Z,935.18
2018-04-27T12:57:30.679Z,935.17
2018-04-27T12:58:38.708Z,935.14
2018-04-27T12:59:46.995Z,935.17
2018-04-27T13:00:54.825Z,935.14
2018-04-27T13:02:02.910Z,935.15
2018-04-27T13:03:11.003Z,935.11
2018-04-27T13:04:19.054Z,935.11
2018-04-27T13:05:27.229Z,935.12
2018-04-27T13:06:35.171Z,935.11
2018-04-27T13:07:43.241Z,935.06
2018-04-27T13:08:51.327Z,935.01
2018-04-27T13:09:59.392Z,935.01
2018-04-27T13:11:07.553Z,935.02
2018-04-27T13:12:15.638Z,935.00
2018-04-27T13:13:23.590Z,934.96
2018-04-27T13:14:31.675Z,934.94
2018-04-27T13:15:39.735Z,934.93
2018-04-27T13:16:48.042Z,934.92
2018-04-27T13:17:55.869Z,934.97
2018-04-27T13:19:03.947Z,934.92
2018-04-27T13:20:12.005Z,934.91
2018-04-27T13:21:20.066Z,934.91
2018-04-27T13:22:28.236Z,934.91
2018-04-27T13:23:36.199Z,934.90
2018-04-27T13:24:44.277Z,934.91
2018-04-27T13:25:52.346Z,934.90
2018-04-27T13:27:00.402Z,934.90
2018-04-27T13:28:08.709Z,934.81
2018-04-27T13:29:16.550Z,934.81
2018-04-27T13:30:24.595Z,934.85
2018-04-27T13:31:32.684Z,934.88
2018-04-27T13:32:40.755Z,934.85
2018-04-27T13:33:49.043Z,934.87
2018-04-27T13:34:56.897Z,934.89
2018-04-27T13:36:04.930Z,934.88
2018-04-27T13:37:13.041Z,934.86
2018-04-27T13:38:21.086Z,934.91
2018-04-27T13:39:29.264Z,934.90
2018-04-27T13:40:37.224Z,934.94
2018-04-27T13:41:45.291Z,934.92
2018-04-27T13:42:53.361Z,934.89
2018-04-27T13:44:01.527Z,934.86
2018-04-27T13:45:09.600Z,934.92
2018-04-27T13:46:17.562Z,934.94
2018-04-27T13:47:25.630Z,934.96
2018-04-27T13:48:33.704Z,934.97
2018-04-27T13:49:41.765Z,934.96
2018-04-27T13:50:50.052Z,934.93
2018-04-27T13:51:57.938Z,934.91
2018-04-27T13:53:05.977Z,934.89
2018-04-27T13:54:14.032Z,934.95
2018-04-27T13:55:22.116Z,934.99
2018-04-27T13:56:30.394Z,934.97
2018-04-27T13:57:38.256Z,934.94
2018-04-27T13:58:46.316Z,934.89
2018-04-27T13:59:54.465Z,934.94
2018-04-27T14:01:02.450Z,934.93
2018-04-27T14:02:10.619Z,934.93
2018-04-27T14:03:18.587Z,934.92
2018-04-27T14:04:26.641Z,934.96
2018-04-27T14:05:34.798Z,934.91
2018-04-27T14:06:42.788Z,934.88
2018-04-27T14:07:50.987Z,934.85
2018-04-27T14:08:58.931Z,934.83
2018-04-27T14:10:07.000Z,934.80